createdAt,value
2022-10-20T00:00:03.469Z,0.00
2022-10-20T00:01:03.499Z,0.00
2022-10-20T00:02:02.787Z,0.00
2022-10-20T00:03:02.755Z,0.00
2022-10-20T00:04:03.039Z,0.00
2022-10-20T00:05:02.769Z,0.00
2022-10-20T00:06:02.754Z,0.00
2022-10-20T00:07:03.031Z,0.00
2022-10-20T00:08:03.090Z,0.00
2022-10-20T00:09:02.670Z,0.00
2022-10-20T00:10:03.030Z,0.00
2022-10-20T00:11:03.060Z,0.00
2022-10-20T00:12:03.462Z,0.00
2022-10-20T00:13:03.155Z,0.00
2022-10-20T00:14:02.963Z,0.00
2022-10-20T00:15:03.445Z,0.00
2022-10-20T00:16:03.315Z,0.00
2022-10-20T00:17:03.479Z,0.00
2022-10-20T00:18:03.440Z,0.00
2022-10-20T00:19:03.836Z,0.00
2022-10-20T00:20:03.575Z,0.00
2022-10-20T00:21:03.506Z,0.00
2022-10-20T00:22:02.374Z,0.00
2022-10-20T00:23:02.865Z,0.00
2022-10-20T00:24:02.743Z,0.00
2022-10-20T00:25:02.522Z,0.00
2022-10-20T00:26:03.003Z,0.00
2022-10-20T00:27:02.667Z,0.00
2022-10-20T00:28:02.849Z,0.00
2022-10-20T00:29:02.914Z,0.00
2022-10-20T00:30:02.751Z,0.00
2022-10-20T00:31:02.969Z,0.00
2022-10-20T00:32:02.913Z,0.00
2022-10-20T00:33:02.897Z,0.00
2022-10-20T00:34:03.349Z,0.00
2022-10-20T00:35:03.211Z,0.00
2022-10-20T00:36:03.369Z,0.00
2022-10-20T00:37:03.153Z,0.00
2022-10-20T00:38:03.227Z,0.00
2022-10-20T00:39:03.605Z,0.00
2022-10-20T00:40:03.121Z,0.00
2022-10-20T00:41:03.319Z,0.00
2022-10-20T00:42:03.133Z,0.00
2022-10-20T00:43:03.752Z,0.00
2022-10-20T00:44:03.378Z,0.00
2022-10-20T00:45:03.561Z,0.00
2022-10-20T00:46:03.736Z,0.00
2022-10-20T00:47:02.393Z,0.00
2022-10-20T00:48:02.484Z,0.00
2022-10-20T00:49:02.831Z,0.00
2022-10-20T00:50:02.845Z,0.00
2022-10-20T00:51:02.698Z,0.00
2022-10-20T00:52:02.561Z,0.00
2022-10-20T00:53:02.533Z,0.00
2022-10-20T00:54:02.812Z,0.00
2022-10-20T00:55:02.660Z,0.00
2022-10-20T00:56:02.472Z,0.00
2022-10-20T00:58:03.443Z,0.00
2022-10-20T00:59:03.194Z,0.00
2022-10-20T01:00:03.549Z,0.00
2022-10-20T01:01:03.126Z,0.00
2022-10-20T01:02:03.004Z,0.00
2022-10-20T01:03:02.913Z,0.00
2022-10-20T01:04:02.733Z,0.00
2022-10-20T01:05:03.161Z,0.00
2022-10-20T01:06:02.951Z,0.00
2022-10-20T01:07:03.432Z,0.00
2022-10-20T01:08:03.883Z,0.00
2022-10-20T01:09:03.472Z,0.00
2022-10-20T01:10:03.624Z,0.00
2022-10-20T01:11:03.429Z,0.00
2022-10-20T01:12:02.999Z,0.00
2022-10-20T01:13:03.164Z,0.00
2022-10-20T01:14:02.956Z,0.00
2022-10-20T01:15:02.998Z,0.00
2022-10-20T01:16:02.884Z,0.00
2022-10-20T01:17:03.380Z,0.00
2022-10-20T01:18:03.626Z,0.00
2022-10-20T01:19:03.484Z,0.00
2022-10-20T01:20:03.260Z,0.00
2022-10-20T01:21:03.654Z,0.00
2022-10-20T01:22:02.788Z,0.00
2022-10-20T01:23:02.583Z,0.00
2022-10-20T01:24:03.063Z,0.00
2022-10-20T01:25:02.927Z,0.00
2022-10-20T01:26:02.719Z,0.00
2022-10-20T01:27:03.482Z,0.00
2022-10-20T01:28:03.277Z,0.00
2022-10-20T01:29:03.053Z,0.00
2022-10-20T01:30:03.598Z,0.00
2022-10-20T01:31:03.077Z,0.00
2022-10-20T01:32:03.268Z,0.00
2022-10-20T01:33:03.634Z,0.00
2022-10-20T01:34:03.728Z,0.00
2022-10-20T01:35:03.464Z,0.00
2022-10-20T01:36:03.258Z,0.00
2022-10-20T01:37:02.833Z,0.00
2022-10-20T01:38:02.609Z,0.00
2022-10-20T01:39:03.101Z,0.00
2022-10-20T01:40:02.893Z,0.00
2022-10-20T01:41:02.766Z,0.00
2022-10-20T01:42:03.502Z,0.00
2022-10-20T01:43:03.369Z,0.00
2022-10-20T01:44:03.306Z,0.00
2022-10-20T01:45:03.174Z,0.00
2022-10-20T01:46:03.041Z,0.00
2022-10-20T01:47:03.585Z,0.00
2022-10-20T01:48:03.452Z,0.00
2022-10-20T01:49:03.363Z,0.00
2022-10-20T01:50:03.527Z,0.00
2022-10-20T01:51:03.583Z,0.00
2022-10-20T01:52:03.546Z,0.00
2022-10-20T01:53:03.260Z,0.00
2022-10-20T01:54:03.418Z,0.00
2022-10-20T01:55:03.099Z,0.00
2022-10-20T01:56:03.137Z,0.00
2022-10-20T01:57:03.624Z,0.00
2022-10-20T01:58:03.870Z,0.00
2022-10-20T01:59:03.615Z,0.00
2022-10-20T02:00:03.312Z,0.00
2022-10-20T02:01:03.821Z,0.00
2022-10-20T02:02:03.424Z,0.00
2022-10-20T02:03:03.192Z,0.00
2022-10-20T02:04:03.539Z,0.00
2022-10-20T02:05:03.507Z,0.00
2022-10-20T02:06:03.579Z,0.00
2022-10-20T02:07:02.517Z,0.00
2022-10-20T02:08:02.566Z,0.00
2022-10-20T02:09:02.472Z,0.00
2022-10-20T02:10:02.935Z,0.00
2022-10-20T02:11:02.862Z,0.00
2022-10-20T02:12:03.402Z,0.00
2022-10-20T02:13:03.245Z,0.00
2022-10-20T02:14:03.504Z,0.00
2022-10-20T02:15:03.247Z,0.00
2022-10-20T02:16:03.096Z,0.00
2022-10-20T02:17:02.893Z,0.00
2022-10-20T02:18:02.983Z,0.00
2022-10-20T02:19:02.398Z,0.00
2022-10-20T02:20:02.330Z,0.00
2022-10-20T02:21:02.873Z,0.00
2022-10-20T02:22:02.882Z,0.00
2022-10-20T02:23:03.364Z,0.00
2022-10-20T02:24:03.195Z,0.00
2022-10-20T02:25:03.373Z,0.00
2022-10-20T02:26:03.325Z,0.00
2022-10-20T02:27:02.451Z,0.00
2022-10-20T02:28:02.517Z,0.00
2022-10-20T02:29:02.956Z,0.00
2022-10-20T02:30:02.513Z,0.00
2022-10-20T02:31:02.946Z,0.00
2022-10-20T02:32:03.022Z,0.00
2022-10-20T02:33:02.831Z,0.00
2022-10-20T02:34:02.717Z,0.00
2022-10-20T02:35:05.163Z,0.00
2022-10-20T02:36:02.981Z,0.00
2022-10-20T02:37:03.499Z,0.00
2022-10-20T02:38:03.472Z,0.00
2022-10-20T02:39:02.883Z,0.00
2022-10-20T02:40:03.450Z,0.00
2022-10-20T02:41:03.396Z,0.00
2022-10-20T02:42:02.982Z,0.00
2022-10-20T02:43:02.774Z,0.00
2022-10-20T02:44:02.314Z,0.00
2022-10-20T02:45:02.785Z,0.00
2022-10-20T02:46:02.645Z,0.00
2022-10-20T02:47:02.791Z,0.00
2022-10-20T02:48:05.165Z,0.00
2022-10-20T02:49:02.958Z,0.00
2022-10-20T02:50:02.812Z,0.00
2022-10-20T02:51:02.603Z,0.00
2022-10-20T02:52:02.207Z,0.00
2022-10-20T02:53:02.693Z,0.00
2022-10-20T02:54:02.452Z,0.00
2022-10-20T02:55:02.363Z,0.00
2022-10-20T02:56:02.178Z,0.00
2022-10-20T02:57:03.058Z,0.00
2022-10-20T02:58:02.806Z,0.00
2022-10-20T02:59:02.745Z,0.00
2022-10-20T03:00:03.186Z,0.00
2022-10-20T03:01:02.919Z,0.00
2022-10-20T03:02:02.778Z,0.00
2022-10-20T03:03:03.274Z,0.00
2022-10-20T03:04:02.799Z,0.00
2022-10-20T03:05:02.767Z,0.00
2022-10-20T03:06:02.764Z,0.00
2022-10-20T03:07:02.413Z,0.00
2022-10-20T03:08:02.284Z,0.00
2022-10-20T03:09:02.726Z,0.00
2022-10-20T03:10:02.388Z,0.00
2022-10-20T03:11:02.446Z,0.00
2022-10-20T03:12:01.962Z,0.00
2022-10-20T03:13:02.416Z,0.00
2022-10-20T03:14:02.132Z,0.00
2022-10-20T03:15:01.974Z,0.00
2022-10-20T03:16:02.009Z,0.00
2022-10-20T03:17:03.078Z,0.00
2022-10-20T03:18:02.492Z,0.00
2022-10-20T03:19:05.351Z,0.00
2022-10-20T03:20:02.450Z,0.00
2022-10-20T03:21:02.850Z,0.00
2022-10-20T03:22:02.624Z,0.00
2022-10-20T03:23:02.973Z,0.00
2022-10-20T03:24:02.940Z,0.00
2022-10-20T03:25:02.743Z,0.00
2022-10-20T03:26:02.785Z,0.00
2022-10-20T03:27:02.696Z,0.00
2022-10-20T03:28:02.601Z,0.00
2022-10-20T03:29:02.206Z,0.00
2022-10-20T03:30:02.830Z,0.00
2022-10-20T03:31:02.382Z,0.00
2022-10-20T03:32:03.142Z,0.00
2022-10-20T03:33:02.785Z,0.00
2022-10-20T03:34:02.585Z,0.00
2022-10-20T03:35:02.600Z,0.00
2022-10-20T03:36:02.724Z,0.00
2022-10-20T03:37:02.719Z,0.00
2022-10-20T03:38:02.108Z,0.00
2022-10-20T03:39:02.577Z,0.00
2022-10-20T03:40:02.333Z,0.00
2022-10-20T03:42:02.789Z,0.00
2022-10-20T03:43:02.695Z,0.00
2022-10-20T03:44:02.577Z,0.00
2022-10-20T03:45:02.490Z,0.00
2022-10-20T03:46:03.087Z,0.00
2022-10-20T03:47:02.494Z,0.00
2022-10-20T03:48:02.591Z,0.00
2022-10-20T03:49:02.546Z,0.00
2022-10-20T03:50:02.694Z,0.00
2022-10-20T03:51:02.422Z,0.00
2022-10-20T03:52:03.009Z,0.00
2022-10-20T03:53:03.189Z,0.00
2022-10-20T03:54:02.750Z,0.00
2022-10-20T03:55:02.679Z,0.00
2022-10-20T03:56:02.700Z,0.00
2022-10-20T03:57:06.794Z,0.00
2022-10-20T03:58:02.142Z,0.00
2022-10-20T04:00:02.035Z,0.00
2022-10-20T04:01:02.159Z,0.00
2022-10-20T04:02:02.795Z,0.00
2022-10-20T04:03:02.693Z,0.00
2022-10-20T04:04:02.626Z,0.00
2022-10-20T04:05:02.513Z,0.00
2022-10-20T04:06:02.429Z,0.00
2022-10-20T04:07:02.902Z,0.00
2022-10-20T04:08:03.178Z,0.00
2022-10-20T04:09:02.768Z,0.00
2022-10-20T04:10:02.931Z,0.00
2022-10-20T04:11:02.797Z,0.00
2022-10-20T04:12:02.383Z,0.00
2022-10-20T04:13:01.913Z,0.00
2022-10-20T04:14:02.053Z,0.00
2022-10-20T04:15:01.968Z,0.00
2022-10-20T04:16:01.834Z,0.00
2022-10-20T04:17:02.345Z,0.00
2022-10-20T04:18:01.904Z,0.00
2022-10-20T04:19:02.531Z,0.00
2022-10-20T04:20:02.206Z,0.00
2022-10-20T04:21:01.868Z,0.00
2022-10-20T04:22:02.210Z,0.00
2022-10-20T04:23:02.562Z,0.00
2022-10-20T04:24:02.439Z,0.00
2022-10-20T04:25:02.597Z,0.00
2022-10-20T04:26:02.443Z,0.00
2022-10-20T04:27:03.115Z,0.00
2022-10-20T04:28:03.056Z,0.00
2022-10-20T04:29:02.964Z,0.00
2022-10-20T04:30:02.951Z,0.00
2022-10-20T04:31:03.340Z,0.00
2022-10-20T04:32:02.915Z,0.00
2022-10-20T04:33:02.624Z,0.00
2022-10-20T04:34:02.568Z,0.00
2022-10-20T04:35:02.918Z,0.00
2022-10-20T04:36:02.642Z,0.00
2022-10-20T04:37:02.932Z,0.00
2022-10-20T04:38:02.527Z,0.00
2022-10-20T04:39:02.527Z,0.00
2022-10-20T04:40:02.945Z,0.00
2022-10-20T04:41:04.217Z,0.00
2022-10-20T04:42:02.985Z,0.00
2022-10-20T04:43:02.914Z,0.00
2022-10-20T04:44:03.091Z,0.00
2022-10-20T04:45:03.036Z,0.00
2022-10-20T04:46:06.908Z,0.00
2022-10-20T04:47:03.035Z,0.00
2022-10-20T04:48:02.604Z,0.00
2022-10-20T04:49:02.457Z,0.00
2022-10-20T04:50:02.463Z,0.00
2022-10-20T04:51:02.942Z,0.00
2022-10-20T04:52:02.469Z,0.00
2022-10-20T04:53:02.153Z,0.00
2022-10-20T04:54:02.507Z,0.00
2022-10-20T04:55:02.194Z,0.00
2022-10-20T04:56:02.091Z,0.00
2022-10-20T04:57:02.546Z,0.00
2022-10-20T04:58:02.488Z,0.00
2022-10-20T04:59:02.172Z,0.00
2022-10-20T05:00:02.655Z,0.00
2022-10-20T05:01:02.238Z,0.00
2022-10-20T05:02:02.825Z,0.00
2022-10-20T05:03:02.490Z,0.00
2022-10-20T05:04:02.414Z,0.00
2022-10-20T05:05:02.184Z,0.00
2022-10-20T05:06:02.641Z,0.00
2022-10-20T05:07:02.421Z,0.00
2022-10-20T05:08:03.004Z,0.00
2022-10-20T05:09:02.568Z,0.00
2022-10-20T05:10:02.546Z,0.00
2022-10-20T05:11:02.443Z,0.00
2022-10-20T05:12:02.225Z,0.00
2022-10-20T05:13:02.043Z,0.00
2022-10-20T05:14:02.619Z,0.00
2022-10-20T05:15:02.136Z,0.00
2022-10-20T05:16:02.365Z,0.00
2022-10-20T05:17:04.204Z,0.00
2022-10-20T05:18:02.701Z,0.00
2022-10-20T05:19:02.178Z,0.00
2022-10-20T05:20:02.727Z,0.00
2022-10-20T05:21:08.950Z,0.00
2022-10-20T05:22:02.934Z,0.00
2022-10-20T05:23:02.567Z,0.00
2022-10-20T05:24:02.649Z,0.00
2022-10-20T05:25:24.554Z,0.00
2022-10-20T05:26:02.926Z,0.00
2022-10-20T05:27:02.617Z,0.00
2022-10-20T05:28:03.070Z,0.00
2022-10-20T05:29:02.951Z,0.00
2022-10-20T05:30:03.508Z,4.00
2022-10-20T05:31:02.665Z,0.00
2022-10-20T05:32:02.860Z,0.00
2022-10-20T05:33:02.826Z,0.00
2022-10-20T05:34:02.385Z,4.00
2022-10-20T05:35:02.893Z,4.00
2022-10-20T05:36:02.540Z,0.00
2022-10-20T05:37:02.604Z,4.00
2022-10-20T05:38:02.614Z,8.00
2022-10-20T05:39:02.706Z,4.00
2022-10-20T05:40:02.830Z,4.00
2022-10-20T05:41:02.894Z,8.00
2022-10-20T05:42:03.122Z,8.00
2022-10-20T05:43:02.927Z,8.00
2022-10-20T05:44:03.208Z,12.00
2022-10-20T05:45:03.058Z,16.00
2022-10-20T05:46:03.343Z,20.00
2022-10-20T05:47:02.841Z,24.00
2022-10-20T05:48:02.426Z,28.00
2022-10-20T05:49:02.776Z,32.00
2022-10-20T05:50:02.520Z,36.00
2022-10-20T05:51:02.345Z,40.00
2022-10-20T05:52:03.080Z,48.00
2022-10-20T05:53:03.075Z,52.00
2022-10-20T05:54:02.870Z,60.00
2022-10-20T05:55:03.496Z,64.00
2022-10-20T05:56:02.986Z,72.00
2022-10-20T05:57:02.930Z,80.00
2022-10-20T05:58:02.834Z,88.00
2022-10-20T05:59:02.736Z,96.00
2022-10-20T06:00:02.856Z,108.00
2022-10-20T06:01:02.356Z,116.00
2022-10-20T06:02:02.499Z,124.00
2022-10-20T06:03:02.409Z,140.00
2022-10-20T06:04:01.840Z,148.00
2022-10-20T06:05:02.354Z,160.00
2022-10-20T06:06:02.353Z,180.00
2022-10-20T06:07:02.589Z,196.00
2022-10-20T06:08:02.503Z,208.00
2022-10-20T06:09:02.774Z,224.00
2022-10-20T06:10:02.711Z,248.00
2022-10-20T06:11:02.546Z,260.00
2022-10-20T06:12:02.263Z,284.00
2022-10-20T06:13:02.032Z,308.00
2022-10-20T06:14:02.118Z,328.00
2022-10-20T06:15:02.588Z,348.00
2022-10-20T06:16:02.316Z,376.00
2022-10-20T06:17:02.779Z,400.00
2022-10-20T06:18:02.928Z,428.00
2022-10-20T06:19:02.476Z,444.00
2022-10-20T06:20:02.623Z,472.00
2022-10-20T06:21:02.567Z,500.00
2022-10-20T06:22:05.541Z,528.00
2022-10-20T06:23:01.968Z,560.00
2022-10-20T06:24:02.402Z,584.00
2022-10-20T06:25:02.411Z,612.00
2022-10-20T06:26:02.291Z,644.00
2022-10-20T06:27:02.178Z,680.00
2022-10-20T06:28:01.961Z,704.00
2022-10-20T06:29:04.605Z,732.00
2022-10-20T06:30:02.332Z,764.00
2022-10-20T06:31:02.343Z,792.00
2022-10-20T06:32:02.054Z,820.00
2022-10-20T06:33:02.037Z,852.00
2022-10-20T06:34:02.224Z,892.00
2022-10-20T06:35:02.402Z,920.00
2022-10-20T06:36:02.356Z,956.00
2022-10-20T06:37:02.104Z,988.00
2022-10-20T06:38:02.676Z,1020.00
2022-10-20T06:39:02.365Z,1056.00
2022-10-20T06:40:02.293Z,1100.00
2022-10-20T06:41:02.636Z,1136.00
2022-10-20T06:42:02.590Z,1172.00
2022-10-20T06:43:02.801Z,1216.00
2022-10-20T06:44:02.538Z,1260.00
2022-10-20T06:45:02.258Z,1284.00
2022-10-20T06:46:02.723Z,1316.00
2022-10-20T06:47:02.563Z,1356.00
2022-10-20T06:48:02.638Z,1356.00
2022-10-20T06:49:02.656Z,1384.00
2022-10-20T06:50:02.630Z,1404.00
2022-10-20T06:51:02.533Z,1420.00
2022-10-20T06:52:01.660Z,1448.00
2022-10-20T06:53:01.665Z,1476.00
2022-10-20T06:54:01.764Z,1496.00
2022-10-20T06:55:01.788Z,1524.00
2022-10-20T06:56:01.721Z,1564.00
2022-10-20T06:57:02.453Z,1580.00
2022-10-20T06:58:02.091Z,1616.00
2022-10-20T06:59:02.143Z,1660.00
2022-10-20T07:00:02.373Z,1708.00
2022-10-20T07:01:04.470Z,1720.00
2022-10-20T07:02:03.169Z,1788.00
2022-10-20T07:03:03.090Z,1828.00
2022-10-20T07:04:02.902Z,1872.00
2022-10-20T07:05:03.549Z,1940.00
2022-10-20T07:06:03.199Z,1992.00
2022-10-20T07:07:02.761Z,2052.00
2022-10-20T07:08:02.741Z,2104.00
2022-10-20T07:09:03.025Z,2208.00
2022-10-20T07:10:02.842Z,2272.00
2022-10-20T07:11:02.466Z,2344.00
2022-10-20T07:12:02.743Z,2416.00
2022-10-20T07:13:03.004Z,2468.00
2022-10-20T07:14:03.490Z,2528.00
2022-10-20T07:15:02.869Z,2808.00
2022-10-20T07:16:03.234Z,2576.00
2022-10-20T07:17:02.685Z,2536.00
2022-10-20T07:18:02.749Z,2556.00
2022-10-20T07:19:02.214Z,2544.00
2022-10-20T07:20:02.720Z,2564.00
2022-10-20T07:21:02.604Z,2560.00
2022-10-20T07:22:02.978Z,2556.00
2022-10-20T07:23:03.035Z,2544.00
2022-10-20T07:24:02.499Z,2564.00
2022-10-20T07:25:03.113Z,2512.00
2022-10-20T07:26:02.726Z,2504.00
2022-10-20T07:27:03.488Z,2484.00
2022-10-20T07:28:03.546Z,2480.00
2022-10-20T07:29:03.528Z,2416.00
2022-10-20T07:30:02.971Z,2564.00
2022-10-20T07:31:03.546Z,2372.00
2022-10-20T07:32:02.991Z,2380.00
2022-10-20T07:33:03.091Z,2368.00
2022-10-20T07:34:26.117Z,2412.00
2022-10-20T07:35:02.951Z,2536.00
2022-10-20T07:36:02.832Z,2684.00
2022-10-20T07:37:03.570Z,2908.00
2022-10-20T07:38:03.504Z,3080.00
2022-10-20T07:39:03.486Z,3220.00
2022-10-20T07:40:03.089Z,3348.00
2022-10-20T07:41:03.641Z,3456.00
2022-10-20T07:42:03.035Z,3580.00
2022-10-20T07:43:03.071Z,3636.00
2022-10-20T07:44:03.107Z,3772.00
2022-10-20T07:45:03.197Z,3956.00
2022-10-20T07:46:03.068Z,4048.00
2022-10-20T07:47:03.633Z,4112.00
2022-10-20T07:48:03.575Z,4216.00
2022-10-20T07:50:03.193Z,4300.00
2022-10-20T07:51:03.538Z,4392.00
2022-10-20T07:52:03.158Z,4440.00
2022-10-20T07:53:02.871Z,4520.00
2022-10-20T07:54:02.536Z,4584.00
2022-10-20T07:55:12.462Z,4620.00
2022-10-20T07:56:02.658Z,4664.00
2022-10-20T07:57:03.500Z,4728.00
2022-10-20T07:58:03.203Z,4776.00
2022-10-20T07:59:03.168Z,4848.00
2022-10-20T08:00:02.766Z,4872.00
2022-10-20T08:01:03.155Z,5004.00
2022-10-20T08:02:02.876Z,5076.00
2022-10-20T08:03:02.753Z,5156.00
2022-10-20T08:04:02.342Z,5240.00
2022-10-20T08:05:02.863Z,5436.00
2022-10-20T08:06:02.402Z,5456.00
2022-10-20T08:07:02.379Z,5584.00
2022-10-20T08:08:02.913Z,5628.00
2022-10-20T08:09:02.972Z,5740.00
2022-10-20T08:10:02.874Z,5784.00
2022-10-20T08:11:02.951Z,5692.00
2022-10-20T08:12:02.983Z,5716.00
2022-10-20T08:13:02.833Z,5748.00
2022-10-20T08:14:03.077Z,5724.00
2022-10-20T08:15:03.412Z,5744.00
2022-10-20T08:16:02.733Z,5584.00
2022-10-20T08:17:02.434Z,5548.00
2022-10-20T08:18:02.411Z,5476.00
2022-10-20T08:19:03.090Z,5296.00
2022-10-20T08:21:02.533Z,5224.00
2022-10-20T08:22:02.066Z,5288.00
2022-10-20T08:23:02.101Z,5228.00
2022-10-20T08:24:02.342Z,5220.00
2022-10-20T08:25:02.566Z,5152.00
2022-10-20T08:26:02.087Z,5116.00
2022-10-20T08:27:02.667Z,5316.00
2022-10-20T08:28:02.757Z,5308.00
2022-10-20T08:29:02.645Z,5344.00
2022-10-20T08:30:22.370Z,5436.00
2022-10-20T08:31:02.687Z,5388.00
2022-10-20T08:32:01.982Z,5396.00
2022-10-20T08:33:02.118Z,5420.00
2022-10-20T08:34:02.020Z,5412.00
2022-10-20T08:35:02.030Z,5596.00
2022-10-20T08:36:02.113Z,5364.00
2022-10-20T08:37:02.249Z,5464.00
2022-10-20T08:38:02.473Z,5548.00
2022-10-20T08:39:05.231Z,5460.00
2022-10-20T08:40:02.476Z,5216.00
2022-10-20T08:41:02.312Z,4976.00
2022-10-20T08:42:08.591Z,5036.00
2022-10-20T08:43:02.318Z,4644.00
2022-10-20T08:44:02.261Z,4320.00
2022-10-20T08:45:02.083Z,4068.00
2022-10-20T08:46:02.716Z,3796.00
2022-10-20T08:47:02.625Z,3884.00
2022-10-20T08:48:02.951Z,3572.00
2022-10-20T08:49:02.396Z,3468.00
2022-10-20T08:50:02.940Z,3344.00
2022-10-20T08:51:02.742Z,3252.00
2022-10-20T08:52:02.730Z,3348.00
2022-10-20T08:53:03.072Z,3276.00
2022-10-20T08:54:02.838Z,3296.00
2022-10-20T08:55:02.904Z,3184.00
2022-10-20T08:56:02.963Z,3148.00
2022-10-20T08:57:02.754Z,3132.00
2022-10-20T08:58:03.156Z,3168.00
2022-10-20T08:59:03.485Z,3368.00
2022-10-20T09:00:06.817Z,3880.00
2022-10-20T09:01:02.880Z,4040.00
2022-10-20T09:02:03.157Z,4648.00
2022-10-20T09:03:03.087Z,4868.00
2022-10-20T09:04:03.489Z,5092.00
2022-10-20T09:05:03.468Z,5376.00
2022-10-20T09:06:02.947Z,5432.00
2022-10-20T09:07:03.261Z,5444.00
2022-10-20T09:08:03.658Z,5228.00
2022-10-20T09:09:03.167Z,4836.00
2022-10-20T09:10:03.573Z,4428.00
2022-10-20T09:11:03.561Z,4012.00
2022-10-20T09:12:03.213Z,3736.00
2022-10-20T09:13:03.501Z,3608.00
2022-10-20T09:14:03.564Z,3508.00
2022-10-20T09:15:03.526Z,3196.00
2022-10-20T09:16:03.511Z,2916.00
2022-10-20T09:17:02.914Z,2548.00
2022-10-20T09:18:02.798Z,2344.00
2022-10-20T09:19:02.950Z,2268.00
2022-10-20T09:20:03.120Z,2324.00
2022-10-20T09:21:03.307Z,2472.00
2022-10-20T09:22:03.107Z,2660.00
2022-10-20T09:23:07.989Z,2816.00
2022-10-20T09:24:03.154Z,2820.00
2022-10-20T09:25:03.183Z,2812.00
2022-10-20T09:26:03.105Z,2852.00
2022-10-20T09:27:02.849Z,3016.00
2022-10-20T09:28:02.931Z,3288.00
2022-10-20T09:29:12.840Z,3640.00
2022-10-20T09:30:02.951Z,3776.00
2022-10-20T09:31:03.013Z,3732.00
2022-10-20T09:32:16.805Z,3656.00
2022-10-20T09:33:03.663Z,3492.00
2022-10-20T09:34:03.166Z,3392.00
2022-10-20T09:35:03.154Z,3324.00
2022-10-20T09:36:03.528Z,3296.00
2022-10-20T09:37:02.836Z,3240.00
2022-10-20T09:38:02.794Z,3280.00
2022-10-20T09:39:02.688Z,3392.00
2022-10-20T09:40:02.791Z,3556.00
2022-10-20T09:41:02.563Z,3696.00
2022-10-20T09:43:03.299Z,3912.00
2022-10-20T09:44:03.487Z,3932.00
2022-10-20T09:45:03.494Z,3972.00
2022-10-20T09:46:03.473Z,4080.00
2022-10-20T09:47:03.238Z,4208.00
2022-10-20T09:48:03.510Z,4484.00
2022-10-20T09:49:03.488Z,4488.00
2022-10-20T09:50:03.130Z,4472.00
2022-10-20T09:51:03.176Z,4464.00
2022-10-20T09:52:03.510Z,4376.00
2022-10-20T09:53:03.614Z,4388.00
2022-10-20T09:54:03.728Z,4216.00
2022-10-20T09:55:03.623Z,4184.00
2022-10-20T09:56:03.539Z,4180.00
2022-10-20T09:57:03.276Z,4104.00
2022-10-20T09:58:03.477Z,3868.00
2022-10-20T09:59:03.190Z,3568.00
2022-10-20T10:00:18.870Z,3172.00
2022-10-20T10:01:03.461Z,2860.00
2022-10-20T10:02:02.903Z,2532.00
2022-10-20T10:03:02.969Z,2252.00
2022-10-20T10:04:03.714Z,2044.00
2022-10-20T10:05:02.958Z,1940.00
2022-10-20T10:06:02.782Z,1996.00
2022-10-20T10:07:02.588Z,2168.00
2022-10-20T10:08:02.636Z,2508.00
2022-10-20T10:09:02.553Z,3028.00
2022-10-20T10:10:05.608Z,3776.00
2022-10-20T10:11:02.319Z,4660.00
2022-10-20T10:12:02.775Z,5296.00
2022-10-20T10:13:02.644Z,5780.00
2022-10-20T10:14:02.583Z,6216.00
2022-10-20T10:15:02.433Z,6720.00
2022-10-20T10:16:02.831Z,6944.00
2022-10-20T10:17:03.413Z,6948.00
2022-10-20T10:18:03.237Z,6468.00
2022-10-20T10:19:03.395Z,5796.00
2022-10-20T10:20:02.983Z,5304.00
2022-10-20T10:21:03.032Z,5244.00
2022-10-20T10:22:03.118Z,5352.00
2022-10-20T10:23:02.858Z,5324.00
2022-10-20T10:24:03.032Z,5224.00
2022-10-20T10:25:02.916Z,5188.00
2022-10-20T10:26:03.344Z,5120.00
2022-10-20T10:27:03.247Z,4988.00
2022-10-20T10:28:02.941Z,4900.00
2022-10-20T10:29:02.993Z,4888.00
2022-10-20T10:30:02.917Z,4992.00
2022-10-20T10:31:02.964Z,5132.00
2022-10-20T10:32:03.666Z,5076.00
2022-10-20T10:33:03.199Z,4988.00
2022-10-20T10:34:03.435Z,4944.00
2022-10-20T10:35:03.359Z,5196.00
2022-10-20T10:36:03.156Z,5576.00
2022-10-20T10:37:02.599Z,5980.00
2022-10-20T10:38:03.093Z,6108.00
2022-10-20T10:39:03.117Z,6020.00
2022-10-20T10:40:02.776Z,5864.00
2022-10-20T10:41:02.651Z,5672.00
2022-10-20T10:42:02.679Z,5416.00
2022-10-20T10:43:02.926Z,5344.00
2022-10-20T10:44:03.006Z,5200.00
2022-10-20T10:45:03.036Z,4932.00
2022-10-20T10:46:03.286Z,4684.00
2022-10-20T10:47:03.492Z,4520.00
2022-10-20T10:48:02.896Z,4368.00
2022-10-20T10:49:02.915Z,4032.00
2022-10-20T10:50:02.716Z,3572.00
2022-10-20T10:51:02.599Z,3228.00
2022-10-20T10:52:02.916Z,2980.00
2022-10-20T10:53:02.552Z,2792.00
2022-10-20T10:54:02.608Z,2672.00
2022-10-20T10:55:02.116Z,2656.00
2022-10-20T10:56:02.198Z,2712.00
2022-10-20T10:57:02.290Z,2720.00
2022-10-20T10:58:02.989Z,2700.00
2022-10-20T10:59:03.110Z,2632.00
2022-10-20T11:00:03.515Z,2536.00
2022-10-20T11:01:03.340Z,2388.00
2022-10-20T11:02:02.919Z,2192.00
2022-10-20T11:03:02.579Z,2032.00
2022-10-20T11:04:02.684Z,1940.00
2022-10-20T11:05:02.581Z,1876.00
2022-10-20T11:06:02.417Z,1808.00
2022-10-20T11:07:02.725Z,1776.00
2022-10-20T11:08:02.580Z,1780.00
2022-10-20T11:09:02.431Z,1848.00
2022-10-20T11:10:02.628Z,1992.00
2022-10-20T11:11:03.020Z,2196.00
2022-10-20T11:12:02.831Z,2460.00
2022-10-20T11:13:02.861Z,2728.00
2022-10-20T11:14:02.519Z,3028.00
2022-10-20T11:15:02.484Z,3432.00
2022-10-20T11:16:02.507Z,4052.00
2022-10-20T11:17:02.990Z,4660.00
2022-10-20T11:18:02.831Z,5076.00
2022-10-20T11:19:03.197Z,5360.00
2022-10-20T11:20:03.283Z,5404.00
2022-10-20T11:21:03.013Z,5236.00
2022-10-20T11:22:02.996Z,4888.00
2022-10-20T11:23:02.595Z,4484.00
2022-10-20T11:24:02.694Z,4120.00
2022-10-20T11:25:02.783Z,3944.00
2022-10-20T11:26:02.969Z,3888.00
2022-10-20T11:27:02.504Z,3904.00
2022-10-20T11:28:02.807Z,3852.00
2022-10-20T11:29:03.198Z,3748.00
2022-10-20T11:30:02.772Z,3780.00
2022-10-20T11:31:03.093Z,3820.00
2022-10-20T11:32:03.197Z,3900.00
2022-10-20T11:33:02.952Z,3920.00
2022-10-20T11:34:03.020Z,3980.00
2022-10-20T11:35:02.485Z,3920.00
2022-10-20T11:36:03.046Z,3852.00
2022-10-20T11:37:03.108Z,3732.00
2022-10-20T11:38:03.719Z,3584.00
2022-10-20T11:39:03.508Z,3468.00
2022-10-20T11:40:07.552Z,3324.00
2022-10-20T11:41:03.510Z,3188.00
2022-10-20T11:42:03.511Z,3164.00
2022-10-20T11:43:03.245Z,3240.00
2022-10-20T11:44:02.700Z,3272.00
2022-10-20T11:45:03.385Z,3396.00
2022-10-20T11:46:03.059Z,3488.00
2022-10-20T11:47:02.733Z,3560.00
2022-10-20T11:48:03.555Z,3600.00
2022-10-20T11:49:04.119Z,3684.00
2022-10-20T11:50:03.275Z,3760.00
2022-10-20T11:51:03.007Z,3688.00
2022-10-20T11:52:03.027Z,3572.00
2022-10-20T11:53:03.622Z,3408.00
2022-10-20T11:54:03.576Z,3224.00
2022-10-20T11:55:03.809Z,3116.00
2022-10-20T11:56:03.592Z,2972.00
2022-10-20T11:57:03.679Z,2892.00
2022-10-20T11:58:03.509Z,2796.00
2022-10-20T11:59:03.472Z,2748.00
2022-10-20T12:00:03.197Z,2684.00
2022-10-20T12:01:03.516Z,2612.00
2022-10-20T12:02:03.521Z,2560.00
2022-10-20T12:03:02.752Z,2532.00
2022-10-20T12:04:03.082Z,2528.00
2022-10-20T12:05:02.566Z,2628.00
2022-10-20T12:06:07.544Z,2676.00
2022-10-20T12:07:02.526Z,2736.00
2022-10-20T12:08:24.543Z,2680.00
2022-10-20T12:09:03.210Z,2604.00
2022-10-20T12:10:02.943Z,2520.00
2022-10-20T12:11:03.216Z,2196.00
2022-10-20T12:12:02.895Z,1952.00
2022-10-20T12:13:02.768Z,1772.00
2022-10-20T12:14:03.031Z,1688.00
2022-10-20T12:15:03.092Z,1640.00
2022-10-20T12:16:03.146Z,1660.00
2022-10-20T12:17:02.880Z,1748.00
2022-10-20T12:18:02.237Z,1828.00
2022-10-20T12:19:02.347Z,2004.00
2022-10-20T12:20:02.613Z,2300.00
2022-10-20T12:21:02.719Z,2516.00
2022-10-20T12:22:02.762Z,2648.00
2022-10-20T12:23:03.373Z,2696.00
2022-10-20T12:24:03.505Z,2840.00
2022-10-20T12:25:03.506Z,3024.00
2022-10-20T12:26:03.085Z,3052.00
2022-10-20T12:27:02.892Z,2988.00
2022-10-20T12:28:03.209Z,2824.00
2022-10-20T12:29:03.085Z,2596.00
2022-10-20T12:30:03.085Z,2440.00
2022-10-20T12:31:03.555Z,2376.00
2022-10-20T12:32:03.340Z,2404.00
2022-10-20T12:33:02.329Z,2380.00
2022-10-20T12:34:02.829Z,2240.00
2022-10-20T12:35:02.406Z,2012.00
2022-10-20T12:36:02.518Z,1836.00
2022-10-20T12:38:02.998Z,1724.00
2022-10-20T12:39:02.874Z,1608.00
2022-10-20T12:40:03.016Z,1448.00
2022-10-20T12:41:02.867Z,1408.00
2022-10-20T12:42:02.917Z,1392.00
2022-10-20T12:43:03.193Z,1388.00
2022-10-20T12:44:03.174Z,1508.00
2022-10-20T12:45:02.778Z,1508.00